Foxridge, Maryland
Current Conditions -  °F | °C
As of 2:54 AM on Monday 24 Nov 2014 (Local Time) from KBWI Reporting Station
Drizzle Drizzle  
Wind Chill: 60°   Ceiling: 600
Heat Index: 60°   Visibility: 8mi
Dew Point: 59°   Wind: 16mph
Humidity: 96%   Direction: 160°SSE
Pressure: 29.67"   Gusts: 23mph
Location:  39.3744°N, 76.8156°W
Report Text: KBWI 240754Z 16014G20KT 8SM -DZ BKN006 OVC011 16/15 A2967 RMK AO2 PK WND 17028/0729 RAE0656DZB49 SLP046 P0001 T01560150
Loading
Personal Weather Stations






























Interactive Weather Map New forecast layout! Learn more

10-Day Weather Forecast

Advertisements
Track Severe Weather on mobile